Wrightstown, NJ (08562)

11:36 PM EDT on April 28, 2017 (GMT -0400)
trotters ridge | | Change Station

Elev 177 ft 40.07 °N, 74.57 °W | Updated 17 seconds ago

Clear
Clear
66.9 °F
Feels Like 66.9 °F
N
2.0
Wind Variable Wind from SSW

Today
High -- | Low -- °F
--% Chance of Precip.
Yesterday
High -- | Low -- °F
Precip. -- in
Pressure 30.03 in
Visibility 10.0 miles
Clouds Clear
Dew Point 56 °F
Humidity 70%
Rainfall 0.00 in
Snow Depth Not available.
6:01 AM 7:50 PM
Waxing Crescent, 10% visible
METAR KWRI 290258Z 21007KT 10SM CLR 20/14 A3003 RMK AO2A SLP168 T02010136 50008 $
Pressure 30.03 in
Visibility 10.0 miles
Clouds Clear
Dew Point 56 °F
Humidity 70%
Rainfall 0.00 in
Snow Depth Not available.
6:01 AM 7:50 PM
Waxing Crescent, 10% visible
METAR KWRI 290258Z 21007KT 10SM CLR 20/14 A3003 RMK AO2A SLP168 T02010136 50008 $

Get Severe Weather Alerts

Thanks for signing up!

Be on the lookout for a verification email in your inbox.

You'll start receiving the daily forecast at 8 AM.

×

10-Day Weather Forecast

Almanac

Astronomy

Apr. 28, 2017 Rise Set
Actual Time
Civil Twilight
Nautical Twilight
Astronomical Twilight
Moon
Length of Visible Light
Length of Day
Tomorrow will be .
, % of the Moon is Illuminated

Today's Extremes

State Highs State Lows

Community

WunderPhotos

WunderBlog® & News

Nearby

Air Quality

  Air Quality AQ Index Pollutant
Not available.

Snow Depth

Station Depth Elevation

Earthquake Activity

City Distance Mag. Time & Date
Minimum magnitude displayed is 2.5.

Coastal Water Temperatures

Place Temperature

Stations

Nearby Weather Stations

Station Location Temp. Windchill Dew Point Humidity Wind Precip. Elev Updated Type
                   

Watches & Warnings

There are currently no watches in effect.